Ron Brown — WTEC — position and weather

sailwx.info

Track history (hours):
 
Tides and Currents Weather Stations Pressure Air Temp Water Temp Dewpoint Dewpoint Depression Visibility Wind Speed Wind Dir Waves Ship Positions

Oceanographic research ship Ron Brown (USA)

Detailed information on ship capabilities available from University of Delaware's Ocean Information Center.

Owner: UNIVERSITY OF SOUTHERN CALIFORNIA, TERMINAL ISLAND, CA. More information available from US FCC via Universal Licensing System and Coast Guard Vessel Documentation Center.

Last reported at 2017-Jun-23 20:00 UTC. Time now 2017-Jun-23 20:38 UTC.
Position S 07°54' W 095°12'.

Type: Other ship. MMSI: 368996000.

Wind from 130 at 14 knots

Barometer 1011.9 mb
Air temperature 24.3 ° C
Water temperature 26.0 ° C

Date/timePositionNaut miles runAvg speedWind from/ knotsBaromVisibWave heightAir tempDewpointWater temp
2017-Jun-23 20:00S 07°54' W 095°12'0 0.0 130 / 141011.9 24.3 26.0
2017-Jun-23 19:00S 07°54' W 095°12'6 6.0 140 / 141012.7 25.2 25.9
2017-Jun-23 18:00S 08°00' W 095°12'0 0.0 120 / 131013.610.8 23.920.725.9
2017-Jun-23 16:59S 08°00' W 095°12'0 0.0 130 / 171013.7 23.8 25.9
2017-Jun-23 15:59S 08°00' W 095°12'1212.2 120 / 161014.1 23.6 25.9
2017-Jun-23 15:00S 07°48' W 095°12'6 6.0 140 / 131013.6 23.3 25.9
2017-Jun-23 14:00S 07°42' W 095°12'1212.0 110 / 151012.6 24.0 25.9
2017-Jun-23 13:00S 07°30' W 095°12'1212.0 110 / 151011.7 23.3 26.0
2017-Jun-23 12:00S 07°18' W 095°12'0 0.0 140 / 81011.4 5.4 22.721.026.0
2017-Jun-23 11:57S 07°18' W 095°12'1313.6 110 / 131011.3 23.5 26.0
2017-Jun-23 10:58S 07°06' W 095°06'1212.0 100 / 111011.2 22.9 26.0
2017-Jun-23 09:58S 06°54' W 095°06'6 6.0 090 / 161011.1 22.4 26.0
2017-Jun-23 08:58S 06°48' W 095°06'1212.0 090 / 151011.0 24.5 25.9
2017-Jun-23 07:58S 06°36' W 095°06'1212.0 100 / 161011.4 24.7 25.9
2017-Jun-23 06:58S 06°24' W 095°06'6 6.2 100 / 171011.9 24.6 25.7
2017-Jun-23 06:00S 06°18' W 095°06'6180.0 120 / 131012.2 5.4 24.219.425.5
2017-Jun-23 05:58S 06°12' W 095°06'6 6.0 110 / 181012.4 24.7 25.6
2017-Jun-23 04:58S 06°06' W 095°06'1313.4 110 / 191012.1 24.7 25.7
2017-Jun-23 03:58S 05°54' W 095°00'6 6.0 110 / 211011.9 24.6 25.7
2017-Jun-23 02:58S 05°48' W 095°00'1212.2 120 / 201011.7 24.6 25.7
2017-Jun-23 01:59S 05°36' W 095°00'1212.0 110 / 221010.9 24.4 25.6
2017-Jun-23 00:59S 05°24' W 095°00'6 6.1 120 / 221010.2 24.8 25.6
2017-Jun-23 00:00S 05°18' W 095°00'1211.8 130 / 211009.8 5.4 24.220.925.6
2017-Jun-22 22:59S 05°06' W 095°00'1212.0 120 / 221009.4 24.8 25.7
2017-Jun-22 21:59S 04°54' W 095°00'8 8.6 130 / 221009.3 24.8 25.6
2017-Jun-22 21:00S 05°00' W 094°54'8 8.5 130 / 181010.1 24.7 25.6
2017-Jun-22 20:00S 04°54' W 095°00'0 0.0 120 / 181010.8 24.6 25.5
2017-Jun-22 19:00S 04°54' W 095°00'0 0.0 130 / 171011.7 24.5 25.5
2017-Jun-22 18:00S 04°54' W 095°00'6 6.0 140 / 171012.810.8 24.923.225.4
2017-Jun-22 17:00S 04°54' W 094°54'6 6.0 150 / 161013.6 24.7 25.4
2017-Jun-22 16:00S 04°54' W 095°00'0 0.0 130 / 171013.5 24.6 25.3
2017-Jun-22 15:00S 04°54' W 095°00'6 6.0 130 / 141013.5 24.9 25.3
2017-Jun-22 14:00S 04°54' W 094°54'6 6.0 130 / 161013.0 24.6 25.3
2017-Jun-22 13:00S 04°54' W 095°00'1212.0 130 / 161011.8 24.5 25.1
2017-Jun-22 12:00S 04°42' W 095°00'0 0.0 150 / 141011.510.8 23.721.624.9
2017-Jun-22 11:58S 04°42' W 095°00'6 6.0 130 / 171011.6 24.3 24.9
2017-Jun-22 10:58S 04°36' W 095°00'1212.0 140 / 181011.0 24.2 24.7
2017-Jun-22 09:58S 04°24' W 095°00'1212.0 130 / 161010.9 24.2 24.5
2017-Jun-22 08:58S 04°12' W 095°00'1212.0 130 / 161011.3 24.3 24.3
2017-Jun-22 07:58S 04°00' W 095°00'1212.0 120 / 131012.2 23.2 24.0
2017-Jun-22 06:58S 03°48' W 095°00'6 6.2 140 / 121013.1 22.7 23.9
2017-Jun-22 06:00S 03°42' W 095°00'0 0.0 1013.7 5.4 22.921.823.6
2017-Jun-22 05:57S 03°42' W 095°00'1212.2 090 / 81013.7 23.4 23.7
2017-Jun-22 04:58S 03°30' W 095°00'1212.0 090 / 91013.7 23.3 23.6
2017-Jun-22 03:58S 03°18' W 095°00'1212.0 100 / 101013.7 23.3 23.6
2017-Jun-22 02:58S 03°06' W 095°00'1313.4 100 / 121013.1 23.3 23.6
2017-Jun-22 01:58S 02°54' W 095°06'1212.0 100 / 121012.4 23.2 23.5
2017-Jun-22 00:58S 02°42' W 095°06'1212.4 100 / 111012.4 23.3 23.8
2017-Jun-22 00:00S 02°30' W 095°06'6 5.9 100 / 121011.910.8 23.221.523.6
2017-Jun-21 22:59S 02°24' W 095°06'1212.2 100 / 141011.3 23.4 23.9
2017-Jun-21 22:00S 02°12' W 095°06'1212.0 100 / 131011.0 23.3 24.2
2017-Jun-21 21:00S 02°00' W 095°06'6 6.0 110 / 141011.0 23.2 24.1
2017-Jun-21 20:00S 01°54' W 095°06'0 0.0 130 / 121011.7 23.2 24.2
2017-Jun-21 19:00S 01°54' W 095°06'0 0.0 130 / 121012.1 23.1 24.1
2017-Jun-21 18:00S 01°54' W 095°06'0 0.0 130 / 131012.910.8 23.920.924.0
2017-Jun-21 17:59S 01°54' W 095°06'0 0.0 130 / 111013.4 23.2 24.0
2017-Jun-21 16:59S 01°54' W 095°06'0 0.0 120 / 101013.8 23.2 24.0
2017-Jun-21 15:59S 01°54' W 095°06'6 6.1 110 / 131013.9 23.1 23.9
2017-Jun-21 15:00S 01°54' W 095°12'0 0.0 120 / 121013.7 23.2 23.8
2017-Jun-21 14:00S 01°54' W 095°12'0 0.0 130 / 131013.3 23.1 23.8
2017-Jun-21 13:01S 01°54' W 095°12'6 5.9 130 / 121012.7 23.0 23.8
2017-Jun-21 12:00S 01°54' W 095°06'0 0.0 120 / 131012.610.8 22.320.723.8
2017-Jun-21 11:55S 01°54' W 095°06'6 6.1 110 / 91012.7 23.0 23.8
2017-Jun-21 10:56S 01°54' W 095°12'0 0.0 130 / 101012.3 22.9 23.8
2017-Jun-21 09:56S 01°54' W 095°12'1212.0 110 / 101011.9 22.9 23.9
2017-Jun-21 08:56S 01°42' W 095°12'6 6.0 100 / 111012.1 23.0 23.8
2017-Jun-21 07:56S 01°36' W 095°12'1212.0 100 / 141012.2 23.1 23.8
2017-Jun-21 06:56S 01°24' W 095°12'6 6.4 110 / 111013.4 23.1 23.8
2017-Jun-21 06:00S 01°18' W 095°12'0 0.0 110 / 101013.7 5.4 22.520.323.6
2017-Jun-21 05:56S 01°18' W 095°12'6 6.1 110 / 121013.4 23.2 23.7
2017-Jun-21 04:57S 01°12' W 095°12'1313.4 120 / 121013.9 23.2 23.6
2017-Jun-21 03:57S 01°00' W 095°18'6 6.0 110 / 151013.2 23.2 23.5
2017-Jun-21 02:57S 00°54' W 095°18'6 6.1 120 / 141012.9 23.2 23.5
2017-Jun-21 01:58S 00°48' W 095°18'1212.0 120 / 141012.1 23.1 23.4
2017-Jun-21 00:58S 00°36' W 095°18'6 6.2 120 / 141011.6 23.0 23.4
2017-Jun-21 00:00S 00°30' W 095°18'6 5.9 130 / 141010.5 5.4 23.020.523.3
2017-Jun-20 22:59S 00°24' W 095°18'1313.4 130 / 151009.8 22.9 23.5
2017-Jun-20 21:59S 00°12' W 095°24'6 6.0 130 / 111009.8 23.1 23.4
2017-Jun-20 20:59S 00°06' W 095°24'6 6.1 150 / 111010.6 22.6 23.3
2017-Jun-20 20:00N 00°00' W 095°24'0 0.0 130 / 121011.5 22.6 23.3
2017-Jun-20 19:00N 00°00' W 095°24'0 0.0 150 / 111012.7 22.4 23.4
2017-Jun-20 18:00N 00°00' W 095°24'0 0.0 170 / 131013.310.8 22.520.923.4
2017-Jun-20 17:59N 00°00' W 095°24'0 0.0 170 / 161013.4 22.2 23.4
2017-Jun-20 16:59N 00°00' W 095°24'6 6.1 130 / 121014.0 22.2 23.3
2017-Jun-20 16:00N 00°06' W 095°24'0 0.0 150 / 141014.1 22.7 23.3
2017-Jun-20 15:00N 00°06' W 095°24'0 0.0 140 / 101014.4 22.8 23.2
2017-Jun-20 14:00N 00°06' W 095°24'6 6.0
2017-Jun-20 13:00N 00°00' W 095°24'6 6.0 130 / 41012.9 22.7 23.2
2017-Jun-20 12:00N 00°06' W 095°24'1211.6 120 / 91012.310.8 21.819.623.2
2017-Jun-20 10:58N 00°18' W 095°24'6 6.0 130 / 101011.8 22.4 23.3
2017-Jun-20 09:58N 00°24' W 095°24'1212.0 130 / 81011.4 22.3 23.3
2017-Jun-20 08:58N 00°36' W 095°24'6 6.0 100 / 91011.8 22.2 23.3
2017-Jun-20 07:58N 00°42' W 095°24'1313.4 110 / 61012.5 22.2 23.3
2017-Jun-20 06:58N 00°54' W 095°18'6 6.2 100 / 81013.0 22.5 23.3
2017-Jun-20 06:00N 01°00' W 095°18'0 0.0 110 / 101013.4 5.4 22.020.023.8
2017-Jun-20 05:58N 01°00' W 095°18'1212.0 110 / 81013.5 22.9 23.9
2017-Jun-20 04:58N 01°12' W 095°18'1212.0 120 / 111013.5 23.1 24.2
2017-Jun-20 03:58N 01°24' W 095°18'6 6.1 140 / 101013.1 23.2 24.5
2017-Jun-20 02:59N 01°30' W 095°18'1212.0 130 / 101013.0 23.4 24.6
2017-Jun-20 01:59N 01°42' W 095°18'6 6.0 130 / 111012.3 23.5 24.8
2017-Jun-20 00:59N 01°48' W 095°18'6 6.1 140 / 121011.7 23.5 24.8
2017-Jun-20 00:00N 01°54' W 095°18'0 0.0 150 / 121010.8 23.6 24.8
2017-Jun-19 23:00N 01°54' W 095°18'0 0.0 140 / 141010.6 23.6 24.8
2017-Jun-19 22:00N 01°54' W 095°18'0 0.0 150 / 141010.4 23.6 24.8
2017-Jun-19 21:00N 01°54' W 095°18'0 0.0 140 / 151010.2 23.6 24.8
2017-Jun-19 20:00N 01°54' W 095°18'0 0.0 140 / 141011.3 23.5 24.8
2017-Jun-19 18:00N 01°54' W 095°18'0 0.0 140 / 131012.010.8 23.920.024.7
2017-Jun-19 17:59N 01°54' W 095°18'0 0.0 140 / 151012.2 23.5 24.7
2017-Jun-19 16:59N 01°54' W 095°18'0 0.0 140 / 151012.8 23.5 24.6
2017-Jun-19 15:59N 01°54' W 095°18'6 6.0 130 / 171013.0 23.4 24.5
2017-Jun-19 14:59N 02°00' W 095°18'1212.2 140 / 161012.9 23.5 24.5
2017-Jun-19 14:00N 02°12' W 095°18'19 9.5 140 / 161012.3 23.6 24.4
2017-Jun-19 12:00N 02°30' W 095°12'0 0.0 140 / 191010.710.8 22.920.024.3
2017-Jun-19 11:57N 02°30' W 095°12'6 6.1 150 / 161010.8 23.4 24.2
2017-Jun-19 10:58N 02°36' W 095°12'1212.0 140 / 131010.5 23.4 24.2
2017-Jun-19 09:58N 02°48' W 095°12'6 6.0 170 / 161010.2 23.2 24.0
2017-Jun-19 08:58N 02°54' W 095°12'1212.0 150 / 161010.3 23.6 24.0
2017-Jun-19 07:58N 03°06' W 095°12'1313.4 150 / 141010.5 24.0 26.2
2017-Jun-19 06:58N 03°18' W 095°06'1212.4 150 / 131011.0 24.3 26.8
2017-Jun-19 06:00N 03°30' W 095°06'0 0.0 150 / 131011.7 5.4 23.721.327.0
2017-Jun-19 05:58N 03°30' W 095°06'6 6.0 190 / 101012.0 24.0 27.1
2017-Jun-19 04:58N 03°36' W 095°06'1212.0 160 / 141012.1 24.8 27.3
2017-Jun-19 03:58N 03°48' W 095°06'1313.4 170 / 141011.8 25.0 27.3
2017-Jun-19 02:58N 04°00' W 095°00'1212.2 150 / 161011.6 25.1 27.2
2017-Jun-19 01:59N 04°12' W 095°00'6 6.0 170 / 131010.9 25.4 27.1
2017-Jun-19 00:59N 04°18' W 095°00'1212.2 160 / 151009.9 25.3 27.1
2017-Jun-19 00:00N 04°30' W 095°00'6 6.0 170 / 181009.4 5.4 25.322.127.3
2017-Jun-18 23:00N 04°36' W 095°00'1313.4 170 / 171008.9 25.6 27.5
2017-Jun-18 22:00N 04°48' W 094°54'1212.0 170 / 161008.8 25.7 27.7
2017-Jun-18 21:00N 05°00' W 094°54'0 0.0 180 / 161009.0 25.7 27.9
2017-Jun-18 20:00N 05°00' W 094°54'0 0.0 180 / 171009.8 25.8 27.9
2017-Jun-18 19:00N 05°00' W 094°54'0 0.0 180 / 181010.6 25.8 27.9
2017-Jun-18 18:00N 05°00' W 094°54'6 5.7 180 / 191010.710.8 25.722.327.8
2017-Jun-18 16:57N 05°06' W 094°54'0 0.0 180 / 201011.4 25.8 27.9
2017-Jun-18 15:58N 05°06' W 094°54'6 5.9 180 / 191012.0 25.8 27.9
2017-Jun-18 14:57N 05°00' W 094°54'8 8.6 190 / 221011.9 26.6 27.8
2017-Jun-18 13:58N 04°54' W 095°00'0 0.0 200 / 201011.6 26.5 27.8
2017-Jun-18 12:58N 04°54' W 095°00'6 6.0 180 / 181011.1 25.6 27.8
2017-Jun-18 11:58N 04°54' W 094°54'8 8.5 180 / 111010.9 25.6 27.8
2017-Jun-18 10:58N 05°00' W 095°00'1212.0 180 / 161010.2 25.7 27.8
2017-Jun-18 09:58N 05°12' W 095°00'6 6.0 180 / 191009.5 25.8 27.9
2017-Jun-18 08:58N 05°18' W 095°00'1212.0 190 / 191009.7 25.5 28.0
2017-Jun-18 07:58N 05°30' W 095°00'1212.0 170 / 171009.9 26.1 27.9
2017-Jun-18 06:58N 05°42' W 095°00'6 6.2 180 / 191010.7 26.1 28.1
2017-Jun-18 06:00N 05°48' W 095°00'0 0.0 190 / 181011.6 5.4 25.922.427.9
2017-Jun-18 05:58N 05°48' W 095°00'1212.0 180 / 181011.8 26.4 27.9
2017-Jun-18 04:58N 06°00' W 095°00'1313.4 180 / 171012.0 26.5 28.0
2017-Jun-18 03:58N 06°12' W 094°54'6 6.0 180 / 151012.0 26.6 28.1
2017-Jun-18 02:58N 06°18' W 094°54'1212.2 180 / 161011.4 26.7 28.0
2017-Jun-18 01:59N 06°30' W 094°54'1212.0 170 / 141010.8 26.7 28.0
2017-Jun-18 00:59N 06°42' W 094°54'1212.2 190 / 131010.3 26.7 28.0
2017-Jun-18 00:00N 06°54' W 094°54'6 5.9 190 / 131009.9 5.4 26.323.127.9
2017-Jun-17 22:59N 07°00' W 094°54'1212.2 200 / 161009.2 27.1 28.2
2017-Jun-17 22:00N 07°12' W 094°54'1212.0 210 / 151009.3 26.0 28.3
2017-Jun-17 21:00N 07°24' W 094°54'1211.8 190 / 141009.6 26.9 28.2
2017-Jun-17 19:59N 07°36' W 094°54'6 6.0 210 / 151010.1 26.6 28.3
2017-Jun-17 18:59N 07°42' W 094°54'1212.2 210 / 151010.8 26.8 28.2
2017-Jun-17 18:00N 07°54' W 094°54'0 0.0 240 / 131011.610.8 26.924.628.3
2017-Jun-17 17:58N 07°54' W 094°54'6 6.1 240 / 161011.7 27.0 28.3
2017-Jun-17 16:59N 08°00' W 094°54'0 0.0 250 / 121012.8 27.7 28.3
2017-Jun-17 15:59N 08°00' W 094°54'0 0.0 230 / 111012.6 27.2 28.3
2017-Jun-17 14:59N 08°00' W 094°54'0 0.0 200 / 141012.2 27.0 28.2
2017-Jun-17 12:00N 08°00' W 094°54'6 1.0 220 / 91011.210.8 26.224.728.2
2017-Jun-17 06:00N 07°54' W 094°54'25 3.1 1013.2 5.4 26.324.228.3
2017-Jun-16 22:00N 08°00' W 095°18'1211.9 220 / 101010.7 26.7 28.3
2017-Jun-16 21:00N 08°00' W 095°30'1211.9 230 / 131011.1 27.0 28.5
2017-Jun-16 20:00N 08°00' W 095°42'1817.8 210 / 141011.7 26.1 28.4
2017-Jun-16 19:00N 08°00' W 096°00'1211.9 230 / 131012.4 27.6 28.4
2017-Jun-16 18:00N 08°00' W 096°12'1211.9 220 / 131012.910.8 27.624.328.4
2017-Jun-16 17:00N 08°00' W 096°24'1211.9 230 / 131013.1 27.5 28.5
2017-Jun-16 16:00N 08°00' W 096°36'1211.7 220 / 111013.5 27.4 28.3
2017-Jun-16 14:59N 08°00' W 096°48'1212.1 210 / 111013.1 27.3 28.1
2017-Jun-16 14:00N 08°00' W 097°00'1211.9 210 / 111012.6 27.3 28.0
2017-Jun-16 13:00N 08°00' W 097°12'1211.7 210 / 91012.1 27.2 27.8
2017-Jun-16 11:59N 08°00' W 097°24'1211.9 240 / 101011.7 27.0 27.9
2017-Jun-16 10:59N 08°00' W 097°36'1211.9 250 / 131011.4 26.4 28.3
2017-Jun-16 09:59N 08°00' W 097°48'1211.9 210 / 81011.7 26.9 28.4
2017-Jun-16 08:59N 08°00' W 098°00'1211.9 230 / 121012.1 26.5 28.3
2017-Jun-16 07:59N 08°00' W 098°12'1211.7 230 / 121012.5 26.0 27.9
2017-Jun-16 06:58N 08°00' W 098°24'1212.1 170 / 111013.2 25.7 28.4
2017-Jun-16 05:59N 08°00' W 098°36'1211.9 190 / 131013.6 26.7 28.5
2017-Jun-16 04:59N 08°00' W 098°48'1211.9 220 / 131013.9 26.9 28.6
2017-Jun-16 03:59N 08°00' W 099°00'1211.9 230 / 141013.6 26.4 28.6
2017-Jun-16 02:59N 08°00' W 099°12'1211.9 230 / 161013.6 26.2 28.7
2017-Jun-16 01:59N 08°00' W 099°24'1212.1 210 / 171013.1 26.4 28.7
2017-Jun-16 01:00N 08°00' W 099°36'1211.9 200 / 191012.3 26.0 28.5
2017-Jun-16 00:00N 08°00' W 099°48'1211.9 180 / 221011.5 25.9 28.3
2017-Jun-15 23:00N 08°00' W 100°00'1817.8 210 / 171011.1 27.7 28.2
2017-Jun-15 22:00N 08°00' W 100°18'1211.9 210 / 161011.0 27.9 28.3
2017-Jun-15 21:00N 08°00' W 100°30'1211.9 220 / 181011.5 28.0 28.3
2017-Jun-15 20:00N 08°00' W 100°42'1211.9 230 / 151012.0 27.4 28.3
2017-Jun-15 19:00N 08°00' W 100°54'1211.5 230 / 221012.8 26.1 28.3
2017-Jun-15 17:58N 08°00' W 101°06'1211.9 220 / 171013.4 25.7 28.3
2017-Jun-15 16:58N 08°00' W 101°18'1818.1 220 / 161013.2 24.6 28.3
2017-Jun-15 15:59N 08°00' W 101°36'1211.9 230 / 211013.2 25.9 28.2
2017-Jun-15 14:59N 08°00' W 101°48'1211.9 220 / 181012.3 26.0 28.2
2017-Jun-15 13:59N 08°00' W 102°00'1212.1 230 / 171011.7 25.9 28.2
2017-Jun-15 13:00N 08°00' W 102°12'1211.9 220 / 191011.3 25.9 28.2
2017-Jun-15 12:00N 08°00' W 102°24'0 0.0 210 / 191010.8 5.4 25.724.328.3
2017-Jun-15 11:57N 08°00' W 102°24'1211.9 200 / 191010.6 26.0 28.4
2017-Jun-15 10:57N 08°00' W 102°36'1211.9 210 / 161010.0 26.9 28.4
2017-Jun-15 09:57N 08°00' W 102°48'1211.9 240 / 131010.2 26.8 28.3
2017-Jun-15 08:57N 08°00' W 103°00'1211.9 230 / 161010.5 26.5 28.1
2017-Jun-15 07:57N 08°00' W 103°12'1211.9 230 / 141011.2 25.7 28.2
2017-Jun-15 06:57N 08°00' W 103°24'1212.5 220 / 151012.3 25.7 28.2
2017-Jun-15 06:00N 08°00' W 103°36'0 0.0 220 / 131012.7 5.4 25.023.628.0
2017-Jun-15 05:58N 08°00' W 103°36'1211.9 210 / 131012.7 25.5 28.0
2017-Jun-15 04:58N 08°00' W 103°48'1211.9 180 / 131012.5 24.8 28.2
2017-Jun-15 03:58N 08°00' W 104°00'1817.8 220 / 71012.7 26.4 28.2
2017-Jun-15 02:58N 08°00' W 104°18'1212.1 250 / 71012.5 26.3 28.2
2017-Jun-15 01:59N 08°00' W 104°30'1211.9 240 / 81011.8 25.9 28.0
2017-Jun-15 00:59N 08°00' W 104°42'1212.1 220 / 121010.7 25.4 27.9
2017-Jun-15 00:00N 08°00' W 104°54'1211.9 200 / 61010.5 5.4 24.723.527.8
2017-Jun-14 23:00N 08°00' W 105°06'1211.9 170 / 61010.1 25.2 27.9
2017-Jun-14 22:00N 08°00' W 105°18'1211.9 250 / 31010.0 25.2 28.1
2017-Jun-14 21:00N 08°00' W 105°30'1211.9 250 / 81010.2 25.5 28.3
2017-Jun-14 20:00N 08°00' W 105°42'1211.9 270 / 131010.7 24.9 28.3
2017-Jun-14 19:00N 08°00' W 105°54'1211.9 290 / 81011.2 24.6 28.3
2017-Jun-14 18:00N 08°00' W 106°06'0 0.0 260 / 191011.5 0.5 24.823.028.3
2017-Jun-14 17:59N 08°00' W 106°06'1817.8 260 / 221011.3 24.7 28.3
2017-Jun-14 16:59N 08°00' W 106°24'1211.9 260 / 241011.4 26.5 28.2
2017-Jun-14 15:59N 08°00' W 106°36'1211.9 250 / 161011.2 27.6 28.2
2017-Jun-14 14:59N 08°00' W 106°48'1211.9 230 / 131011.0 26.5 28.4
2017-Jun-14 13:59N 08°00' W 107°00'1212.1 240 / 151010.4 26.5 28.3
2017-Jun-14 13:00N 08°00' W 107°12'1211.9 230 / 141009.8 26.1 28.3
2017-Jun-14 12:00N 08°00' W 107°24'1211.1 220 / 131009.4 5.4 25.224.528.3
2017-Jun-14 10:56N 08°00' W 107°36'1211.9 240 / 131009.5 25.6 28.5
2017-Jun-14 09:56N 08°00' W 107°48'1211.9 220 / 121009.5 26.6 28.3
2017-Jun-14 08:56N 08°00' W 108°00'1817.8 230 / 131009.8 26.9 28.3
2017-Jun-14 07:56N 08°00' W 108°18'1212.1 220 / 121010.4 26.7 28.4
2017-Jun-14 06:57N 08°00' W 108°30'1212.5 210 / 111011.1 26.4 28.4
2017-Jun-14 06:00N 08°00' W 108°42'0 0.0 210 / 141011.5 5.4 25.523.928.5
2017-Jun-14 05:57N 08°00' W 108°42'1211.9 220 / 141011.6 26.1 28.6
2017-Jun-14 04:57N 08°00' W 108°54'1211.9 220 / 121011.8 25.5 28.6
2017-Jun-14 03:57N 08°00' W 109°06'1212.1 220 / 161011.5 25.4 28.6
2017-Jun-14 02:58N 08°00' W 109°18'1211.9 220 / 121011.1 25.2 28.8
2017-Jun-14 01:58N 08°00' W 109°30'1211.9 240 / 111010.3 25.0 28.9
2017-Jun-14 00:58N 08°00' W 109°42'1212.3 250 / 121010.0 24.7 28.8
2017-Jun-14 00:00N 08°00' W 109°54'1211.7 1009.4 2.2 24.624.328.9
2017-Jun-13 22:59N 08°00' W 110°06'0 0.0 320 / 71009.3 25.0 28.9
2017-Jun-13 22:00N 08°00' W 110°06'0 0.0 240 / 81009.7 25.5 28.9
2017-Jun-13 21:00N 08°00' W 110°06'0 0.0 220 / 81010.3 25.4 28.9
2017-Jun-13 20:00N 08°00' W 110°06'   280 / 101010.8 25.8 28.9
Track history (hours):
 
Tides and Currents Weather Stations Pressure Air Temp Water Temp Dewpoint Dewpoint Depression Visibility Wind Speed Wind Dir Waves Ship Positions

Oceanographic research ship Ron Brown (USA)

Detailed information on ship capabilities available from University of Delaware's Ocean Information Center.

Owner: UNIVERSITY OF SOUTHERN CALIFORNIA, TERMINAL ISLAND, CA. More information available from US FCC via Universal Licensing System and Coast Guard Vessel Documentation Center.

Last reported at 2017-Jun-23 20:00 UTC. Time now 2017-Jun-23 20:38 UTC.
Position S 07°54' W 095°12'.

Type: Other ship. MMSI: 368996000.

Wind from 130 at 14 knots

Barometer 1011.9 mb
Air temperature 24.3 ° C
Water temperature 26.0 ° C

Date/timePositionNaut miles runAvg speedWind from/ knotsBaromVisibWave heightAir tempDewpointWater temp
2017-Jun-23 20:00S 07°54' W 095°12'0 0.0 130 / 141011.9 24.3 26.0
2017-Jun-23 19:00S 07°54' W 095°12'6 6.0 140 / 141012.7 25.2 25.9
2017-Jun-23 18:00S 08°00' W 095°12'0 0.0 120 / 131013.610.8 23.920.725.9
2017-Jun-23 16:59S 08°00' W 095°12'0 0.0 130 / 171013.7 23.8 25.9
2017-Jun-23 15:59S 08°00' W 095°12'1212.2 120 / 161014.1 23.6 25.9
2017-Jun-23 15:00S 07°48' W 095°12'6 6.0 140 / 131013.6 23.3 25.9
2017-Jun-23 14:00S 07°42' W 095°12'1212.0 110 / 151012.6 24.0 25.9
2017-Jun-23 13:00S 07°30' W 095°12'1212.0 110 / 151011.7 23.3 26.0
2017-Jun-23 12:00S 07°18' W 095°12'0 0.0 140 / 81011.4 5.4 22.721.026.0
2017-Jun-23 11:57S 07°18' W 095°12'1313.6 110 / 131011.3 23.5 26.0
2017-Jun-23 10:58S 07°06' W 095°06'1212.0 100 / 111011.2 22.9 26.0
2017-Jun-23 09:58S 06°54' W 095°06'6 6.0 090 / 161011.1 22.4 26.0
2017-Jun-23 08:58S 06°48' W 095°06'1212.0 090 / 151011.0 24.5 25.9
2017-Jun-23 07:58S 06°36' W 095°06'1212.0 100 / 161011.4 24.7 25.9
2017-Jun-23 06:58S 06°24' W 095°06'6 6.2 100 / 171011.9 24.6 25.7
2017-Jun-23 06:00S 06°18' W 095°06'6180.0 120 / 131012.2 5.4 24.219.425.5
2017-Jun-23 05:58S 06°12' W 095°06'6 6.0 110 / 181012.4 24.7 25.6
2017-Jun-23 04:58S 06°06' W 095°06'1313.4 110 / 191012.1 24.7 25.7
2017-Jun-23 03:58S 05°54' W 095°00'6 6.0 110 / 211011.9 24.6 25.7
2017-Jun-23 02:58S 05°48' W 095°00'1212.2 120 / 201011.7 24.6 25.7
2017-Jun-23 01:59S 05°36' W 095°00'1212.0 110 / 221010.9 24.4 25.6
2017-Jun-23 00:59S 05°24' W 095°00'6 6.1 120 / 221010.2 24.8 25.6
2017-Jun-23 00:00S 05°18' W 095°00'1211.8 130 / 211009.8 5.4 24.220.925.6
2017-Jun-22 22:59S 05°06' W 095°00'1212.0 120 / 221009.4 24.8 25.7
2017-Jun-22 21:59S 04°54' W 095°00'8 8.6 130 / 221009.3 24.8 25.6
2017-Jun-22 21:00S 05°00' W 094°54'8 8.5 130 / 181010.1 24.7 25.6
2017-Jun-22 20:00S 04°54' W 095°00'0 0.0 120 / 181010.8 24.6 25.5
2017-Jun-22 19:00S 04°54' W 095°00'0 0.0 130 / 171011.7 24.5 25.5
2017-Jun-22 18:00S 04°54' W 095°00'6 6.0 140 / 171012.810.8 24.923.225.4
2017-Jun-22 17:00S 04°54' W 094°54'6 6.0 150 / 161013.6 24.7 25.4
2017-Jun-22 16:00S 04°54' W 095°00'0 0.0 130 / 171013.5 24.6 25.3
2017-Jun-22 15:00S 04°54' W 095°00'6 6.0 130 / 141013.5 24.9 25.3
2017-Jun-22 14:00S 04°54' W 094°54'6 6.0 130 / 161013.0 24.6 25.3
2017-Jun-22 13:00S 04°54' W 095°00'1212.0 130 / 161011.8 24.5 25.1
2017-Jun-22 12:00S 04°42' W 095°00'0 0.0 150 / 141011.510.8 23.721.624.9
2017-Jun-22 11:58S 04°42' W 095°00'6 6.0 130 / 171011.6 24.3 24.9
2017-Jun-22 10:58S 04°36' W 095°00'1212.0 140 / 181011.0 24.2 24.7
2017-Jun-22 09:58S 04°24' W 095°00'1212.0 130 / 161010.9 24.2 24.5
2017-Jun-22 08:58S 04°12' W 095°00'1212.0 130 / 161011.3 24.3 24.3
2017-Jun-22 07:58S 04°00' W 095°00'1212.0 120 / 131012.2 23.2 24.0
2017-Jun-22 06:58S 03°48' W 095°00'6 6.2 140 / 121013.1 22.7 23.9
2017-Jun-22 06:00S 03°42' W 095°00'0 0.0 1013.7 5.4 22.921.823.6
2017-Jun-22 05:57S 03°42' W 095°00'1212.2 090 / 81013.7 23.4 23.7
2017-Jun-22 04:58S 03°30' W 095°00'1212.0 090 / 91013.7 23.3 23.6
2017-Jun-22 03:58S 03°18' W 095°00'1212.0 100 / 101013.7 23.3 23.6
2017-Jun-22 02:58S 03°06' W 095°00'1313.4 100 / 121013.1 23.3 23.6
2017-Jun-22 01:58S 02°54' W 095°06'1212.0 100 / 121012.4 23.2 23.5
2017-Jun-22 00:58S 02°42' W 095°06'1212.4 100 / 111012.4 23.3 23.8
2017-Jun-22 00:00S 02°30' W 095°06'6 5.9 100 / 121011.910.8 23.221.523.6
2017-Jun-21 22:59S 02°24' W 095°06'1212.2 100 / 141011.3 23.4 23.9
2017-Jun-21 22:00S 02°12' W 095°06'1212.0 100 / 131011.0 23.3 24.2
2017-Jun-21 21:00S 02°00' W 095°06'6 6.0 110 / 141011.0 23.2 24.1
2017-Jun-21 20:00S 01°54' W 095°06'0 0.0 130 / 121011.7 23.2 24.2
2017-Jun-21 19:00S 01°54' W 095°06'0 0.0 130 / 121012.1 23.1 24.1
2017-Jun-21 18:00S 01°54' W 095°06'0 0.0 130 / 131012.910.8 23.920.924.0
2017-Jun-21 17:59S 01°54' W 095°06'0 0.0 130 / 111013.4 23.2 24.0
2017-Jun-21 16:59S 01°54' W 095°06'0 0.0 120 / 101013.8 23.2 24.0
2017-Jun-21 15:59S 01°54' W 095°06'6 6.1 110 / 131013.9 23.1 23.9
2017-Jun-21 15:00S 01°54' W 095°12'0 0.0 120 / 121013.7 23.2 23.8
2017-Jun-21 14:00S 01°54' W 095°12'0 0.0 130 / 131013.3 23.1 23.8
2017-Jun-21 13:01S 01°54' W 095°12'6 5.9 130 / 121012.7 23.0 23.8
2017-Jun-21 12:00S 01°54' W 095°06'0 0.0 120 / 131012.610.8 22.320.723.8
2017-Jun-21 11:55S 01°54' W 095°06'6 6.1 110 / 91012.7 23.0 23.8
2017-Jun-21 10:56S 01°54' W 095°12'0 0.0 130 / 101012.3 22.9 23.8
2017-Jun-21 09:56S 01°54' W 095°12'1212.0 110 / 101011.9 22.9 23.9
2017-Jun-21 08:56S 01°42' W 095°12'6 6.0 100 / 111012.1 23.0 23.8
2017-Jun-21 07:56S 01°36' W 095°12'1212.0 100 / 141012.2 23.1 23.8
2017-Jun-21 06:56S 01°24' W 095°12'6 6.4 110 / 111013.4 23.1 23.8
2017-Jun-21 06:00S 01°18' W 095°12'0 0.0 110 / 101013.7 5.4 22.520.323.6
2017-Jun-21 05:56S 01°18' W 095°12'6 6.1 110 / 121013.4 23.2 23.7
2017-Jun-21 04:57S 01°12' W 095°12'1313.4 120 / 121013.9 23.2 23.6
2017-Jun-21 03:57S 01°00' W 095°18'6 6.0 110 / 151013.2 23.2 23.5
2017-Jun-21 02:57S 00°54' W 095°18'6 6.1 120 / 141012.9 23.2 23.5
2017-Jun-21 01:58S 00°48' W 095°18'1212.0 120 / 141012.1 23.1 23.4
2017-Jun-21 00:58S 00°36' W 095°18'6 6.2 120 / 141011.6 23.0 23.4
2017-Jun-21 00:00S 00°30' W 095°18'6 5.9 130 / 141010.5 5.4 23.020.523.3
2017-Jun-20 22:59S 00°24' W 095°18'1313.4 130 / 151009.8 22.9 23.5
2017-Jun-20 21:59S 00°12' W 095°24'6 6.0 130 / 111009.8 23.1 23.4
2017-Jun-20 20:59S 00°06' W 095°24'6 6.1 150 / 111010.6 22.6 23.3
2017-Jun-20 20:00N 00°00' W 095°24'0 0.0 130 / 121011.5 22.6 23.3
2017-Jun-20 19:00N 00°00' W 095°24'0 0.0 150 / 111012.7 22.4 23.4
2017-Jun-20 18:00N 00°00' W 095°24'0 0.0 170 / 131013.310.8 22.520.923.4
2017-Jun-20 17:59N 00°00' W 095°24'0 0.0 170 / 161013.4 22.2 23.4
2017-Jun-20 16:59N 00°00' W 095°24'6 6.1 130 / 121014.0 22.2 23.3
2017-Jun-20 16:00N 00°06' W 095°24'0 0.0 150 / 141014.1 22.7 23.3
2017-Jun-20 15:00N 00°06' W 095°24'0 0.0 140 / 101014.4 22.8 23.2
2017-Jun-20 14:00N 00°06' W 095°24'6 6.0
2017-Jun-20 13:00N 00°00' W 095°24'6 6.0 130 / 41012.9 22.7 23.2
2017-Jun-20 12:00N 00°06' W 095°24'1211.6 120 / 91012.310.8 21.819.623.2
2017-Jun-20 10:58N 00°18' W 095°24'6 6.0 130 / 101011.8 22.4 23.3
2017-Jun-20 09:58N 00°24' W 095°24'1212.0 130 / 81011.4 22.3 23.3
2017-Jun-20 08:58N 00°36' W 095°24'6 6.0 100 / 91011.8 22.2 23.3
2017-Jun-20 07:58N 00°42' W 095°24'1313.4 110 / 61012.5 22.2 23.3
2017-Jun-20 06:58N 00°54' W 095°18'6 6.2 100 / 81013.0 22.5 23.3
2017-Jun-20 06:00N 01°00' W 095°18'0 0.0 110 / 101013.4 5.4 22.020.023.8
2017-Jun-20 05:58N 01°00' W 095°18'1212.0 110 / 81013.5 22.9 23.9
2017-Jun-20 04:58N 01°12' W 095°18'1212.0 120 / 111013.5 23.1 24.2
2017-Jun-20 03:58N 01°24' W 095°18'6 6.1 140 / 101013.1 23.2 24.5
2017-Jun-20 02:59N 01°30' W 095°18'1212.0 130 / 101013.0 23.4 24.6
2017-Jun-20 01:59N 01°42' W 095°18'6 6.0 130 / 111012.3 23.5 24.8
2017-Jun-20 00:59N 01°48' W 095°18'6 6.1 140 / 121011.7 23.5 24.8
2017-Jun-20 00:00N 01°54' W 095°18'0 0.0 150 / 121010.8 23.6 24.8
2017-Jun-19 23:00N 01°54' W 095°18'0 0.0 140 / 141010.6 23.6 24.8
2017-Jun-19 22:00N 01°54' W 095°18'0 0.0 150 / 141010.4 23.6 24.8
2017-Jun-19 21:00N 01°54' W 095°18'0 0.0 140 / 151010.2 23.6 24.8
2017-Jun-19 20:00N 01°54' W 095°18'0 0.0 140 / 141011.3 23.5 24.8
2017-Jun-19 18:00N 01°54' W 095°18'0 0.0 140 / 131012.010.8 23.920.024.7
2017-Jun-19 17:59N 01°54' W 095°18'0 0.0 140 / 151012.2 23.5 24.7
2017-Jun-19 16:59N 01°54' W 095°18'0 0.0 140 / 151012.8 23.5 24.6
2017-Jun-19 15:59N 01°54' W 095°18'6 6.0 130 / 171013.0 23.4 24.5
2017-Jun-19 14:59N 02°00' W 095°18'1212.2 140 / 161012.9 23.5 24.5
2017-Jun-19 14:00N 02°12' W 095°18'19 9.5 140 / 161012.3 23.6 24.4
2017-Jun-19 12:00N 02°30' W 095°12'0 0.0 140 / 191010.710.8 22.920.024.3
2017-Jun-19 11:57N 02°30' W 095°12'6 6.1 150 / 161010.8 23.4 24.2
2017-Jun-19 10:58N 02°36' W 095°12'1212.0 140 / 131010.5 23.4 24.2
2017-Jun-19 09:58N 02°48' W 095°12'6 6.0 170 / 161010.2 23.2 24.0
2017-Jun-19 08:58N 02°54' W 095°12'1212.0 150 / 161010.3 23.6 24.0
2017-Jun-19 07:58N 03°06' W 095°12'1313.4 150 / 141010.5 24.0 26.2
2017-Jun-19 06:58N 03°18' W 095°06'1212.4 150 / 131011.0 24.3 26.8
2017-Jun-19 06:00N 03°30' W 095°06'0 0.0 150 / 131011.7 5.4 23.721.327.0
2017-Jun-19 05:58N 03°30' W 095°06'6 6.0 190 / 101012.0 24.0 27.1
2017-Jun-19 04:58N 03°36' W 095°06'1212.0 160 / 141012.1 24.8 27.3
2017-Jun-19 03:58N 03°48' W 095°06'1313.4 170 / 141011.8 25.0 27.3
2017-Jun-19 02:58N 04°00' W 095°00'1212.2 150 / 161011.6 25.1 27.2
2017-Jun-19 01:59N 04°12' W 095°00'6 6.0 170 / 131010.9 25.4 27.1
2017-Jun-19 00:59N 04°18' W 095°00'1212.2 160 / 151009.9 25.3 27.1
2017-Jun-19 00:00N 04°30' W 095°00'6 6.0 170 / 181009.4 5.4 25.322.127.3
2017-Jun-18 23:00N 04°36' W 095°00'1313.4 170 / 171008.9 25.6 27.5
2017-Jun-18 22:00N 04°48' W 094°54'1212.0 170 / 161008.8 25.7 27.7
2017-Jun-18 21:00N 05°00' W 094°54'0 0.0 180 / 161009.0 25.7 27.9
2017-Jun-18 20:00N 05°00' W 094°54'0 0.0 180 / 171009.8 25.8 27.9
2017-Jun-18 19:00N 05°00' W 094°54'0 0.0 180 / 181010.6 25.8 27.9
2017-Jun-18 18:00N 05°00' W 094°54'6 5.7 180 / 191010.710.8 25.722.327.8
2017-Jun-18 16:57N 05°06' W 094°54'0 0.0 180 / 201011.4 25.8 27.9
2017-Jun-18 15:58N 05°06' W 094°54'6 5.9 180 / 191012.0 25.8 27.9
2017-Jun-18 14:57N 05°00' W 094°54'8 8.6 190 / 221011.9 26.6 27.8
2017-Jun-18 13:58N 04°54' W 095°00'0 0.0 200 / 201011.6 26.5 27.8
2017-Jun-18 12:58N 04°54' W 095°00'6 6.0 180 / 181011.1 25.6 27.8
2017-Jun-18 11:58N 04°54' W 094°54'8 8.5 180 / 111010.9 25.6 27.8
2017-Jun-18 10:58N 05°00' W 095°00'1212.0 180 / 161010.2 25.7 27.8
2017-Jun-18 09:58N 05°12' W 095°00'6 6.0 180 / 191009.5 25.8 27.9
2017-Jun-18 08:58N 05°18' W 095°00'1212.0 190 / 191009.7 25.5 28.0
2017-Jun-18 07:58N 05°30' W 095°00'1212.0 170 / 171009.9 26.1 27.9
2017-Jun-18 06:58N 05°42' W 095°00'6 6.2 180 / 191010.7 26.1 28.1
2017-Jun-18 06:00N 05°48' W 095°00'0 0.0 190 / 181011.6 5.4 25.922.427.9
2017-Jun-18 05:58N 05°48' W 095°00'1212.0 180 / 181011.8 26.4 27.9
2017-Jun-18 04:58N 06°00' W 095°00'1313.4 180 / 171012.0 26.5 28.0
2017-Jun-18 03:58N 06°12' W 094°54'6 6.0 180 / 151012.0 26.6 28.1
2017-Jun-18 02:58N 06°18' W 094°54'1212.2 180 / 161011.4 26.7 28.0
2017-Jun-18 01:59N 06°30' W 094°54'1212.0 170 / 141010.8 26.7 28.0
2017-Jun-18 00:59N 06°42' W 094°54'1212.2 190 / 131010.3 26.7 28.0
2017-Jun-18 00:00N 06°54' W 094°54'6 5.9 190 / 131009.9 5.4 26.323.127.9
2017-Jun-17 22:59N 07°00' W 094°54'1212.2 200 / 161009.2 27.1 28.2
2017-Jun-17 22:00N 07°12' W 094°54'1212.0 210 / 151009.3 26.0 28.3
2017-Jun-17 21:00N 07°24' W 094°54'1211.8 190 / 141009.6 26.9 28.2
2017-Jun-17 19:59N 07°36' W 094°54'6 6.0 210 / 151010.1 26.6 28.3
2017-Jun-17 18:59N 07°42' W 094°54'1212.2 210 / 151010.8 26.8 28.2
2017-Jun-17 18:00N 07°54' W 094°54'0 0.0 240 / 131011.610.8 26.924.628.3
2017-Jun-17 17:58N 07°54' W 094°54'6 6.1 240 / 161011.7 27.0 28.3
2017-Jun-17 16:59N 08°00' W 094°54'0 0.0 250 / 121012.8 27.7 28.3
2017-Jun-17 15:59N 08°00' W 094°54'0 0.0 230 / 111012.6 27.2 28.3
2017-Jun-17 14:59N 08°00' W 094°54'0 0.0 200 / 141012.2 27.0 28.2
2017-Jun-17 12:00N 08°00' W 094°54'6 1.0 220 / 91011.210.8 26.224.728.2
2017-Jun-17 06:00N 07°54' W 094°54'25 3.1 1013.2 5.4 26.324.228.3
2017-Jun-16 22:00N 08°00' W 095°18'1211.9 220 / 101010.7 26.7 28.3
2017-Jun-16 21:00N 08°00' W 095°30'1211.9 230 / 131011.1 27.0 28.5
2017-Jun-16 20:00N 08°00' W 095°42'1817.8 210 / 141011.7 26.1 28.4
2017-Jun-16 19:00N 08°00' W 096°00'1211.9 230 / 131012.4 27.6 28.4
2017-Jun-16 18:00N 08°00' W 096°12'1211.9 220 / 131012.910.8 27.624.328.4
2017-Jun-16 17:00N 08°00' W 096°24'1211.9 230 / 131013.1 27.5 28.5
2017-Jun-16 16:00N 08°00' W 096°36'1211.7 220 / 111013.5 27.4 28.3
2017-Jun-16 14:59N 08°00' W 096°48'1212.1 210 / 111013.1 27.3 28.1
2017-Jun-16 14:00N 08°00' W 097°00'1211.9 210 / 111012.6 27.3 28.0
2017-Jun-16 13:00N 08°00' W 097°12'1211.7 210 / 91012.1 27.2 27.8
2017-Jun-16 11:59N 08°00' W 097°24'1211.9 240 / 101011.7 27.0 27.9
2017-Jun-16 10:59N 08°00' W 097°36'1211.9 250 / 131011.4 26.4 28.3
2017-Jun-16 09:59N 08°00' W 097°48'1211.9 210 / 81011.7 26.9 28.4
2017-Jun-16 08:59N 08°00' W 098°00'1211.9 230 / 121012.1 26.5 28.3
2017-Jun-16 07:59N 08°00' W 098°12'1211.7 230 / 121012.5 26.0 27.9
2017-Jun-16 06:58N 08°00' W 098°24'1212.1 170 / 111013.2 25.7 28.4
2017-Jun-16 05:59N 08°00' W 098°36'1211.9 190 / 131013.6 26.7 28.5
2017-Jun-16 04:59N 08°00' W 098°48'1211.9 220 / 131013.9 26.9 28.6
2017-Jun-16 03:59N 08°00' W 099°00'1211.9 230 / 141013.6 26.4 28.6
2017-Jun-16 02:59N 08°00' W 099°12'1211.9 230 / 161013.6 26.2 28.7
2017-Jun-16 01:59N 08°00' W 099°24'1212.1 210 / 171013.1 26.4 28.7
2017-Jun-16 01:00N 08°00' W 099°36'1211.9 200 / 191012.3 26.0 28.5
2017-Jun-16 00:00N 08°00' W 099°48'1211.9 180 / 221011.5 25.9 28.3
2017-Jun-15 23:00N 08°00' W 100°00'1817.8 210 / 171011.1 27.7 28.2
2017-Jun-15 22:00N 08°00' W 100°18'1211.9 210 / 161011.0 27.9 28.3
2017-Jun-15 21:00N 08°00' W 100°30'1211.9 220 / 181011.5 28.0 28.3
2017-Jun-15 20:00N 08°00' W 100°42'1211.9 230 / 151012.0 27.4 28.3
2017-Jun-15 19:00N 08°00' W 100°54'1211.5 230 / 221012.8 26.1 28.3
2017-Jun-15 17:58N 08°00' W 101°06'1211.9 220 / 171013.4 25.7 28.3
2017-Jun-15 16:58N 08°00' W 101°18'1818.1 220 / 161013.2 24.6 28.3
2017-Jun-15 15:59N 08°00' W 101°36'1211.9 230 / 211013.2 25.9 28.2
2017-Jun-15 14:59N 08°00' W 101°48'1211.9 220 / 181012.3 26.0 28.2
2017-Jun-15 13:59N 08°00' W 102°00'1212.1 230 / 171011.7 25.9 28.2
2017-Jun-15 13:00N 08°00' W 102°12'1211.9 220 / 191011.3 25.9 28.2
2017-Jun-15 12:00N 08°00' W 102°24'0 0.0 210 / 191010.8 5.4 25.724.328.3
2017-Jun-15 11:57N 08°00' W 102°24'1211.9 200 / 191010.6 26.0 28.4
2017-Jun-15 10:57N 08°00' W 102°36'1211.9 210 / 161010.0 26.9 28.4
2017-Jun-15 09:57N 08°00' W 102°48'1211.9 240 / 131010.2 26.8 28.3
2017-Jun-15 08:57N 08°00' W 103°00'1211.9 230 / 161010.5 26.5 28.1
2017-Jun-15 07:57N 08°00' W 103°12'1211.9 230 / 141011.2 25.7 28.2
2017-Jun-15 06:57N 08°00' W 103°24'1212.5 220 / 151012.3 25.7 28.2
2017-Jun-15 06:00N 08°00' W 103°36'0 0.0 220 / 131012.7 5.4 25.023.628.0
2017-Jun-15 05:58N 08°00' W 103°36'1211.9 210 / 131012.7 25.5 28.0
2017-Jun-15 04:58N 08°00' W 103°48'1211.9 180 / 131012.5 24.8 28.2
2017-Jun-15 03:58N 08°00' W 104°00'1817.8 220 / 71012.7 26.4 28.2
2017-Jun-15 02:58N 08°00' W 104°18'1212.1 250 / 71012.5 26.3 28.2
2017-Jun-15 01:59N 08°00' W 104°30'1211.9 240 / 81011.8 25.9 28.0
2017-Jun-15 00:59N 08°00' W 104°42'1212.1 220 / 121010.7 25.4 27.9
2017-Jun-15 00:00N 08°00' W 104°54'1211.9 200 / 61010.5 5.4 24.723.527.8
2017-Jun-14 23:00N 08°00' W 105°06'1211.9 170 / 61010.1 25.2 27.9
2017-Jun-14 22:00N 08°00' W 105°18'1211.9 250 / 31010.0 25.2 28.1
2017-Jun-14 21:00N 08°00' W 105°30'1211.9 250 / 81010.2 25.5 28.3
2017-Jun-14 20:00N 08°00' W 105°42'1211.9 270 / 131010.7 24.9 28.3
2017-Jun-14 19:00N 08°00' W 105°54'1211.9 290 / 81011.2 24.6 28.3
2017-Jun-14 18:00N 08°00' W 106°06'0 0.0 260 / 191011.5 0.5 24.823.028.3
2017-Jun-14 17:59N 08°00' W 106°06'1817.8 260 / 221011.3 24.7 28.3
2017-Jun-14 16:59N 08°00' W 106°24'1211.9 260 / 241011.4 26.5 28.2
2017-Jun-14 15:59N 08°00' W 106°36'1211.9 250 / 161011.2 27.6 28.2
2017-Jun-14 14:59N 08°00' W 106°48'1211.9 230 / 131011.0 26.5 28.4
2017-Jun-14 13:59N 08°00' W 107°00'1212.1 240 / 151010.4 26.5 28.3
2017-Jun-14 13:00N 08°00' W 107°12'1211.9 230 / 141009.8 26.1 28.3
2017-Jun-14 12:00N 08°00' W 107°24'1211.1 220 / 131009.4 5.4 25.224.528.3
2017-Jun-14 10:56N 08°00' W 107°36'1211.9 240 / 131009.5 25.6 28.5
2017-Jun-14 09:56N 08°00' W 107°48'1211.9 220 / 121009.5 26.6 28.3
2017-Jun-14 08:56N 08°00' W 108°00'1817.8 230 / 131009.8 26.9 28.3
2017-Jun-14 07:56N 08°00' W 108°18'1212.1 220 / 121010.4 26.7 28.4
2017-Jun-14 06:57N 08°00' W 108°30'1212.5 210 / 111011.1 26.4 28.4
2017-Jun-14 06:00N 08°00' W 108°42'0 0.0 210 / 141011.5 5.4 25.523.928.5
2017-Jun-14 05:57N 08°00' W 108°42'1211.9 220 / 141011.6 26.1 28.6
2017-Jun-14 04:57N 08°00' W 108°54'1211.9 220 / 121011.8 25.5 28.6
2017-Jun-14 03:57N 08°00' W 109°06'1212.1 220 / 161011.5 25.4 28.6
2017-Jun-14 02:58N 08°00' W 109°18'1211.9 220 / 121011.1 25.2 28.8
2017-Jun-14 01:58N 08°00' W 109°30'1211.9 240 / 111010.3 25.0 28.9
2017-Jun-14 00:58N 08°00' W 109°42'1212.3 250 / 121010.0 24.7 28.8
2017-Jun-14 00:00N 08°00' W 109°54'1211.7 1009.4 2.2 24.624.328.9
2017-Jun-13 22:59N 08°00' W 110°06'0 0.0 320 / 71009.3 25.0 28.9
2017-Jun-13 22:00N 08°00' W 110°06'0 0.0 240 / 81009.7 25.5 28.9
2017-Jun-13 21:00N 08°00' W 110°06'0 0.0 220 / 81010.3 25.4 28.9
2017-Jun-13 20:00N 08°00' W 110°06'   280 / 101010.8 25.8 28.9

Dump ship's entire track history